University Park, New Mexico
Current Conditions -  °F | °C
As of 2:15 AM on Monday 22 Dec 2014 (Local Time) from KLRU Reporting Station
Clear Clear  
Wind Chill: 44°   Ceiling: Unl
Heat Index: 47°   Visibility: 10mi
Dew Point: 31°   Wind: 6mph
Humidity: 54%   Direction: 310°NW
Pressure: 29.94"   Gusts: NA
Location:  32.2825°N, 106.737°W
Report Text: KLRU 220915Z AUTO 31005KT 10SM CLR 08/M01 A2994 RMK AO2 T00821006
Loading
Personal Weather Stations






























Interactive Weather Map New forecast layout! Learn more

10-Day Weather Forecast

Advertisements
Track Severe Weather on mobile